createdAt,value
2018-10-09T00:03:00.000Z,13.8
2018-10-09T00:08:00.000Z,13.9
2018-10-09T00:13:00.000Z,13.8
2018-10-09T00:18:00.000Z,13.8
2018-10-09T00:23:00.000Z,13.8
2018-10-09T00:28:00.000Z,13.7
2018-10-09T00:33:00.000Z,13.6
2018-10-09T00:38:00.000Z,13.5
2018-10-09T00:43:00.000Z,13.4
2018-10-09T00:48:00.000Z,13.4
2018-10-09T00:53:00.000Z,13.4
2018-10-09T00:58:00.000Z,13.4
2018-10-09T01:03:00.000Z,13.4
2018-10-09T01:08:00.000Z,13.4
2018-10-09T01:13:00.000Z,13.3
2018-10-09T01:18:00.000Z,13.3
2018-10-09T01:23:00.000Z,13.3
2018-10-09T01:28:00.000Z,13.3
2018-10-09T01:33:00.000Z,13.3
2018-10-09T01:38:00.000Z,13.2
2018-10-09T01:43:00.000Z,13.2
2018-10-09T01:48:00.000Z,13.2
2018-10-09T01:53:00.000Z,13.2
2018-10-09T01:58:00.000Z,13.2
2018-10-09T02:03:00.000Z,13.2
2018-10-09T02:08:00.000Z,13.2
2018-10-09T02:13:00.000Z,13.2
2018-10-09T02:18:00.000Z,13.3
2018-10-09T02:23:00.000Z,13.2
2018-10-09T02:28:00.000Z,13.2
2018-10-09T02:33:00.000Z,13.2
2018-10-09T02:38:00.000Z,13.2
2018-10-09T02:43:00.000Z,13.2
2018-10-09T02:48:00.000Z,13.2
2018-10-09T02:53:00.000Z,13.2
2018-10-09T02:58:00.000Z,13.3
2018-10-09T03:03:00.000Z,13.3
2018-10-09T03:08:00.000Z,13.2
2018-10-09T03:13:00.000Z,13.2
2018-10-09T03:18:00.000Z,13.2
2018-10-09T03:23:00.000Z,13.2
2018-10-09T03:28:00.000Z,13.2
2018-10-09T03:33:00.000Z,13.1
2018-10-09T03:38:00.000Z,13.1
2018-10-09T03:43:00.000Z,13.0
2018-10-09T03:48:00.000Z,13.0
2018-10-09T03:53:00.000Z,13.0
2018-10-09T03:58:00.000Z,12.9
2018-10-09T04:03:00.000Z,12.8
2018-10-09T04:08:00.000Z,12.7
2018-10-09T04:14:00.000Z,12.6
2018-10-09T04:19:00.000Z,12.6
2018-10-09T04:24:00.000Z,12.6
2018-10-09T04:29:00.000Z,12.6
2018-10-09T04:34:00.000Z,12.6
2018-10-09T04:39:00.000Z,12.6
2018-10-09T04:44:00.000Z,12.7
2018-10-09T04:49:00.000Z,12.7
2018-10-09T04:54:00.000Z,12.7
2018-10-09T04:59:00.000Z,12.6
2018-10-09T05:04:00.000Z,12.6
2018-10-09T05:09:00.000Z,12.6
2018-10-09T05:14:00.000Z,12.5
2018-10-09T05:19:00.000Z,12.5
2018-10-09T05:24:00.000Z,12.5
2018-10-09T05:29:00.000Z,12.6
2018-10-09T05:34:00.000Z,12.6
2018-10-09T05:39:00.000Z,12.6
2018-10-09T05:44:00.000Z,12.7
2018-10-09T05:49:00.000Z,12.7
2018-10-09T05:54:00.000Z,12.7
2018-10-09T05:59:00.000Z,12.8
2018-10-09T06:04:00.000Z,12.8
2018-10-09T06:09:00.000Z,12.9
2018-10-09T06:14:00.000Z,13.0
2018-10-09T06:19:00.000Z,13.0
2018-10-09T06:24:00.000Z,13.0
2018-10-09T06:29:00.000Z,13.1
2018-10-09T06:34:00.000Z,13.2
2018-10-09T06:39:00.000Z,13.3
2018-10-09T06:44:00.000Z,13.4
2018-10-09T06:49:00.000Z,13.5
2018-10-09T06:54:00.000Z,13.5
2018-10-09T06:59:00.000Z,13.6
2018-10-09T07:04:00.000Z,13.7
2018-10-09T07:09:00.000Z,13.8
2018-10-09T07:14:00.000Z,13.8
2018-10-09T07:19:00.000Z,14.0
2018-10-09T07:24:00.000Z,14.0
2018-10-09T07:29:00.000Z,14.2
2018-10-09T07:34:00.000Z,14.4
2018-10-09T07:39:00.000Z,14.5
2018-10-09T07:44:00.000Z,14.6
2018-10-09T07:49:00.000Z,14.7
2018-10-09T07:54:00.000Z,14.9
2018-10-09T07:59:00.000Z,15.1
2018-10-09T08:04:00.000Z,15.3
2018-10-09T08:09:00.000Z,15.4
2018-10-09T08:14:00.000Z,15.7
2018-10-09T08:19:00.000Z,15.9
2018-10-09T08:24:00.000Z,16.1
2018-10-09T08:29:00.000Z,16.3
2018-10-09T08:34:00.000Z,17.0
2018-10-09T08:39:00.000Z,18.4
2018-10-09T08:44:00.000Z,19.7
2018-10-09T08:49:00.000Z,21.1
2018-10-09T08:54:00.000Z,21.9
2018-10-09T08:59:00.000Z,22.9
2018-10-09T09:04:00.000Z,23.6
2018-10-09T09:09:00.000Z,24.0
2018-10-09T09:14:00.000Z,24.5
2018-10-09T09:19:00.000Z,25.1
2018-10-09T09:24:00.000Z,25.6
2018-10-09T09:29:00.000Z,25.9
2018-10-09T09:34:00.000Z,26.3
2018-10-09T09:39:00.000Z,26.5
2018-10-09T09:44:00.000Z,26.6
2018-10-09T09:49:00.000Z,26.3
2018-10-09T09:54:00.000Z,26.4
2018-10-09T09:59:00.000Z,26.6
2018-10-09T10:04:00.000Z,26.6
2018-10-09T10:09:00.000Z,26.5
2018-10-09T10:15:00.000Z,26.5
2018-10-09T10:20:00.000Z,26.3
2018-10-09T10:25:00.000Z,26.1
2018-10-09T10:30:00.000Z,26.0
2018-10-09T10:35:00.000Z,25.9
2018-10-09T10:40:00.000Z,25.7
2018-10-09T10:45:00.000Z,25.5
2018-10-09T10:50:00.000Z,25.0
2018-10-09T10:55:00.000Z,24.8
2018-10-09T11:00:00.000Z,24.8
2018-10-09T11:05:00.000Z,24.6
2018-10-09T11:10:00.000Z,24.5
2018-10-09T11:15:00.000Z,24.3
2018-10-09T11:20:00.000Z,24.1
2018-10-09T11:25:00.000Z,23.8
2018-10-09T11:30:00.000Z,23.6
2018-10-09T11:35:00.000Z,23.3
2018-10-09T11:40:00.000Z,22.9
2018-10-09T11:45:00.000Z,22.7
2018-10-09T11:50:00.000Z,22.5
2018-10-09T11:55:00.000Z,22.3
2018-10-09T12:00:00.000Z,22.4
2018-10-09T12:05:00.000Z,22.4
2018-10-09T12:10:00.000Z,22.5
2018-10-09T12:15:00.000Z,22.5
2018-10-09T12:20:00.000Z,22.5
2018-10-09T12:25:00.000Z,22.7
2018-10-09T12:30:00.000Z,22.8
2018-10-09T12:35:00.000Z,22.8
2018-10-09T12:40:00.000Z,23.0
2018-10-09T12:45:00.000Z,23.1
2018-10-09T12:50:00.000Z,23.2
2018-10-09T12:55:00.000Z,23.4
2018-10-09T13:00:00.000Z,23.6
2018-10-09T13:05:00.000Z,23.6
2018-10-09T13:10:00.000Z,23.7
2018-10-09T13:15:00.000Z,23.8
2018-10-09T13:20:00.000Z,23.8
2018-10-09T13:25:00.000Z,23.9
2018-10-09T13:30:00.000Z,23.9
2018-10-09T13:35:00.000Z,24.0
2018-10-09T13:40:00.000Z,23.9
2018-10-09T13:45:00.000Z,23.7
2018-10-09T13:50:00.000Z,23.6
2018-10-09T13:55:00.000Z,23.5
2018-10-09T14:00:00.000Z,23.5
2018-10-09T14:05:00.000Z,23.4
2018-10-09T14:10:00.000Z,23.3
2018-10-09T14:15:00.000Z,23.1
2018-10-09T14:20:00.000Z,23.0
2018-10-09T14:25:00.000Z,22.8
2018-10-09T14:30:00.000Z,22.7
2018-10-09T14:35:00.000Z,22.6
2018-10-09T14:40:00.000Z,22.4
2018-10-09T14:45:00.000Z,22.2
2018-10-09T14:50:00.000Z,22.1
2018-10-09T14:55:00.000Z,21.9
2018-10-09T15:00:00.000Z,21.8
2018-10-09T15:05:00.000Z,21.7
2018-10-09T15:10:00.000Z,21.5
2018-10-09T15:15:00.000Z,21.3
2018-10-09T15:20:00.000Z,21.2
2018-10-09T15:25:00.000Z,21.1
2018-10-09T15:30:00.000Z,21.0
2018-10-09T15:35:00.000Z,20.9
2018-10-09T15:40:00.000Z,20.8
2018-10-09T15:45:00.000Z,20.7
2018-10-09T15:50:00.000Z,20.7
2018-10-09T15:55:00.000Z,20.6
2018-10-09T16:00:00.000Z,20.5
2018-10-09T16:05:00.000Z,20.4
2018-10-09T16:10:00.000Z,20.2
2018-10-09T16:15:00.000Z,20.1
2018-10-09T16:21:00.000Z,20.0
2018-10-09T16:26:00.000Z,19.9
2018-10-09T16:31:00.000Z,19.8
2018-10-09T16:36:00.000Z,19.7
2018-10-09T16:41:00.000Z,19.6
2018-10-09T16:46:00.000Z,19.5
2018-10-09T16:51:00.000Z,19.5
2018-10-09T16:56:00.000Z,19.4
2018-10-09T17:01:00.000Z,19.3
2018-10-09T17:06:00.000Z,19.3
2018-10-09T17:11:00.000Z,19.2
2018-10-09T17:16:00.000Z,19.2
2018-10-09T17:21:00.000Z,19.1
2018-10-09T17:26:00.000Z,19.1
2018-10-09T17:31:00.000Z,19.0
2018-10-09T17:36:00.000Z,18.9
2018-10-09T17:41:00.000Z,18.9
2018-10-09T17:46:00.000Z,18.8
2018-10-09T17:51:00.000Z,18.8
2018-10-09T17:56:00.000Z,18.7
2018-10-09T18:01:00.000Z,18.6
2018-10-09T18:06:00.000Z,18.6
2018-10-09T18:11:00.000Z,18.5
2018-10-09T18:16:00.000Z,18.4
2018-10-09T18:21:00.000Z,18.3
2018-10-09T18:26:00.000Z,18.3
2018-10-09T18:31:00.000Z,18.2
2018-10-09T18:36:00.000Z,18.1
2018-10-09T18:41:00.000Z,18.1
2018-10-09T18:46:00.000Z,18.0
2018-10-09T18:51:00.000Z,18.0
2018-10-09T18:56:00.000Z,18.0
2018-10-09T19:01:00.000Z,18.0
2018-10-09T19:06:00.000Z,18.0
2018-10-09T19:11:00.000Z,17.9
2018-10-09T19:16:00.000Z,17.9
2018-10-09T19:21:00.000Z,17.9
2018-10-09T19:26:00.000Z,17.8
2018-10-09T19:31:00.000Z,17.8
2018-10-09T19:36:00.000Z,17.7
2018-10-09T19:41:00.000Z,17.7
2018-10-09T19:46:00.000Z,17.6
2018-10-09T19:51:00.000Z,17.6
2018-10-09T19:56:00.000Z,17.5
2018-10-09T20:01:00.000Z,17.4
2018-10-09T20:06:00.000Z,17.3
2018-10-09T20:11:00.000Z,17.2
2018-10-09T20:16:00.000Z,17.1
2018-10-09T20:21:00.000Z,17.1
2018-10-09T20:26:00.000Z,17.1
2018-10-09T20:31:00.000Z,17.0
2018-10-09T20:36:00.000Z,17.0
2018-10-09T20:41:00.000Z,17.0
2018-10-09T20:46:00.000Z,17.0
2018-10-09T20:51:00.000Z,16.9
2018-10-09T20:56:00.000Z,16.9
2018-10-09T21:01:00.000Z,16.9
2018-10-09T21:06:00.000Z,16.9
2018-10-09T21:11:00.000Z,16.8
2018-10-09T21:16:00.000Z,16.7
2018-10-09T21:21:00.000Z,16.6
2018-10-09T21:26:00.000Z,16.5
2018-10-09T21:31:00.000Z,16.5
2018-10-09T21:36:00.000Z,16.4
2018-10-09T21:41:00.000Z,16.3
2018-10-09T21:46:00.000Z,16.2
2018-10-09T21:51:00.000Z,16.1
2018-10-09T21:56:00.000Z,16.0
2018-10-09T22:01:00.000Z,16.0
2018-10-09T22:06:00.000Z,16.0
2018-10-09T22:11:00.000Z,16.0
2018-10-09T22:17:00.000Z,15.9
2018-10-09T22:22:00.000Z,15.9
2018-10-09T22:27:00.000Z,15.9
2018-10-09T22:32:00.000Z,15.8
2018-10-09T22:37:00.000Z,15.8
2018-10-09T22:42:00.000Z,15.8
2018-10-09T22:47:00.000Z,15.7
2018-10-09T22:52:00.000Z,15.7
2018-10-09T22:57:00.000Z,15.7
2018-10-09T23:02:00.000Z,15.7
2018-10-09T23:07:00.000Z,15.7
2018-10-09T23:12:00.000Z,15.7
2018-10-09T23:17:00.000Z,15.7
2018-10-09T23:22:00.000Z,15.6
2018-10-09T23:27:00.000Z,15.6
2018-10-09T23:32:00.000Z,15.6
2018-10-09T23:37:00.000Z,15.5
2018-10-09T23:42:00.000Z,15.5
2018-10-09T23:47:00.000Z,15.4
2018-10-09T23:52:00.000Z,15.4
2018-10-09T23:57:00.000Z,15.4
